Time;durP1;ratioP1;P1;durP2;ratioP2;P2;SDS_P1;SDS_P2;PMS_P1;PMS_P2;Temp;Humidity;BMP_temperature;BMP_pressure;BME280_temperature;BME280_humidity;BME280_pressure;Samples;Min_cycle;Max_cycle;Signal;HPM_P1;HPM_P2
2021/01/24 00:00:15;;;;;;;17.08;7.45;;;;;;;2.68;60.60;97865.34;5020062;28;20122;-76
2021/01/24 00:02:42;;;;;;;17.02;6.10;;;;;;;2.31;61.33;97868.06;5014673;28;20053;-77
2021/01/24 00:05:09;;;;;;;17.38;7.65;;;;;;;2.28;61.82;97873.25;5031412;28;20053;-76
2021/01/24 00:07:36;;;;;;;19.15;7.35;;;;;;;2.25;61.93;97875.84;5009042;28;20546;-76
2021/01/24 00:10:06;;;;;;;17.17;6.65;;;;;;;2.14;62.39;97869.88;5009654;28;20054;-76
2021/01/24 00:12:33;;;;;;;9.38;4.63;;;;;;;2.14;62.83;97873.31;5011756;28;20042;-76
2021/01/24 00:15:00;;;;;;;8.82;3.70;;;;;;;1.49;65.71;97870.84;5016605;28;20046;-76
2021/01/24 00:17:27;;;;;;;7.78;2.88;;;;;;;1.95;65.44;97875.94;4993005;28;20042;-77
2021/01/24 00:19:54;;;;;;;6.10;3.03;;;;;;;1.91;65.83;97869.06;5006527;28;20052;-76
2021/01/24 00:22:20;;;;;;;8.45;3.80;;;;;;;1.75;66.30;97875.97;5009725;28;20405;-76
2021/01/24 00:24:47;;;;;;;6.57;3.42;;;;;;;2.10;65.65;97865.59;4977293;28;20084;-78
2021/01/24 00:27:15;;;;;;;6.88;4.07;;;;;;;1.95;65.99;97863.06;4989072;28;20517;-77
2021/01/24 00:29:42;;;;;;;6.72;3.03;;;;;;;2.26;64.88;97864.66;4997692;28;20056;-77
2021/01/24 00:32:08;;;;;;;8.93;2.88;;;;;;;2.53;63.77;97867.13;4992063;28;20047;-76
2021/01/24 00:34:35;;;;;;;12.40;2.72;;;;;;;2.47;64.16;97859.41;4998194;28;20042;-76
2021/01/24 00:37:02;;;;;;;8.93;2.65;;;;;;;2.44;63.91;97859.44;4997825;28;20153;-77
2021/01/24 00:39:28;;;;;;;6.38;2.95;;;;;;;2.57;63.22;97861.09;4975659;28;20042;-77
2021/01/24 00:41:55;;;;;;;8.25;2.90;;;;;;;2.34;64.82;97869.78;4996771;28;20421;-78
2021/01/24 00:44:21;;;;;;;8.73;2.55;;;;;;;2.35;65.06;97858.63;5029603;28;20478;-78
2021/01/24 00:46:48;;;;;;;5.18;3.03;;;;;;;2.40;65.63;97860.28;5011393;28;20511;-76
2021/01/24 00:49:14;;;;;;;11.02;3.58;;;;;;;2.23;65.36;97866.38;4998835;28;20124;-75
2021/01/24 00:51:41;;;;;;;8.90;3.30;;;;;;;2.65;64.50;97871.34;5015233;28;20065;-75
2021/01/24 00:54:07;;;;;;;7.28;3.05;;;;;;;2.97;63.35;97863.44;5019701;28;20061;-77
2021/01/24 00:56:33;;;;;;;9.13;3.50;;;;;;;2.87;63.14;97866.94;5015482;28;20644;-76
2021/01/24 00:59:00;;;;;;;7.72;3.40;;;;;;;2.99;62.51;97870.28;5016741;28;20050;-76
2021/01/24 01:01:27;;;;;;;11.60;3.90;;;;;;;2.94;62.04;97874.63;5001500;28;20054;-76
2021/01/24 01:03:54;;;;;;;12.30;4.80;;;;;;;2.90;61.25;97872.94;4987270;28;20046;-75
2021/01/24 01:06:21;;;;;;;12.32;4.47;;;;;;;2.53;61.64;97876.56;5014841;28;20075;-75
2021/01/24 01:08:47;;;;;;;18.20;5.60;;;;;;;2.26;63.21;97874.09;5018591;28;20061;-77
2021/01/24 01:11:13;;;;;;;15.00;6.20;;;;;;;2.56;61.50;97876.56;5001937;28;20381;-76
2021/01/24 01:13:40;;;;;;;19.00;7.85;;;;;;;2.78;60.61;97872.97;5015541;28;20064;-76
2021/01/24 01:16:06;;;;;;;13.15;5.03;;;;;;;2.94;60.00;97882.34;5017802;28;20049;-76
2021/01/24 01:18:33;;;;;;;15.60;5.95;;;;;;;2.43;61.29;97883.50;5010066;28;20162;-76
2021/01/24 01:20:59;;;;;;;11.98;5.90;;;;;;;2.27;62.26;97886.13;5014494;28;20049;-76
2021/01/24 01:23:26;;;;;;;25.77;7.07;;;;;;;2.76;60.60;97881.59;5000765;28;20072;-76
2021/01/24 01:25:53;;;;;;;16.13;6.07;;;;;;;1.98;63.50;97878.47;5016569;28;20476;-76
2021/01/24 01:28:20;;;;;;;14.18;5.55;;;;;;;1.85;64.26;97879.38;5019682;28;20259;-76
2021/01/24 01:30:47;;;;;;;14.50;5.65;;;;;;;2.48;62.30;97874.03;5009634;28;20050;-76
2021/01/24 01:33:14;;;;;;;14.25;5.07;;;;;;;2.83;61.00;97878.97;5021526;28;20051;-76
2021/01/24 01:35:40;;;;;;;10.65;4.78;;;;;;;2.58;61.33;97872.25;5006446;28;20060;-77
2021/01/24 01:38:07;;;;;;;17.98;6.88;;;;;;;2.80;60.48;97875.56;5022942;28;20408;-76
2021/01/24 01:40:35;;;;;;;10.60;5.28;;;;;;;2.66;60.87;97885.97;5014966;28;20052;-76
2021/01/24 01:43:01;;;;;;;12.70;4.93;;;;;;;2.56;60.72;97879.13;5019933;28;20056;-76
2021/01/24 01:45:29;;;;;;;10.48;5.18;;;;;;;2.38;61.60;97882.66;4980798;28;20468;-76
2021/01/24 01:47:57;;;;;;;12.23;4.43;;;;;;;2.33;61.65;97880.97;5019832;28;20156;-76
2021/01/24 01:50:25;;;;;;;10.18;5.22;;;;;;;2.51;61.35;97878.28;5015089;28;20073;-77
2021/01/24 01:52:51;;;;;;;10.20;5.35;;;;;;;2.33;61.93;97886.97;5019108;28;20063;-77
2021/01/24 01:55:18;;;;;;;11.60;5.57;;;;;;;2.37;61.71;97882.66;5017432;28;20053;-77
2021/01/24 01:57:44;;;;;;;10.23;4.93;;;;;;;2.13;62.00;97883.59;5010801;28;20052;-77
2021/01/24 02:00:11;;;;;;;11.77;5.15;;;;;;;2.14;62.55;97882.75;4997404;28;20525;-76
2021/01/24 02:03:16;;;;;;;12.88;4.60;;;;;;;2.10;62.45;97876.75;4990741;28;20050;-77
2021/01/24 02:05:56;;;;;;;13.38;3.80;;;;;;;1.39;65.06;97871.72;5030729;28;24917;-76
2021/01/24 02:08:51;;;;;;;10.13;3.28;;;;;;;1.93;63.92;97875.06;5020258;28;20922;-77
2021/01/24 02:11:28;;;;;;;9.88;3.30;;;;;;;1.98;63.26;97871.63;5006923;28;20064;-76
2021/01/24 02:14:20;;;;;;;7.25;2.63;;;;;;;2.07;62.83;97881.88;5005233;28;20064;-76
2021/01/24 02:16:47;;;;;;;4.90;2.15;;;;;;;2.27;61.38;97878.41;4986009;28;20067;-76
2021/01/24 02:19:26;;;;;;;3.75;1.40;;;;;;;2.65;59.95;97881.66;5005938;28;20041;-76
2021/01/24 02:21:54;;;;;;;14.93;4.18;;;;;;;2.09;61.70;97880.19;5015716;28;20516;-75
2021/01/24 02:24:24;;;;;;;11.57;5.38;;;;;;;2.06;62.26;97887.91;5000105;28;20156;-77
2021/01/24 02:27:05;;;;;;;15.63;4.72;;;;;;;1.97;62.62;97884.50;5016683;28;20045;-77
2021/01/24 02:29:58;;;;;;;12.23;5.28;;;;;;;2.02;62.40;97886.19;5018431;28;20161;-75
2021/01/24 02:32:26;;;;;;;10.07;5.43;;;;;;;1.96;62.35;97887.94;5010092;28;20144;-76
2021/01/24 02:34:57;;;;;;;15.43;6.22;;;;;;;2.16;62.14;97883.56;5014251;28;20094;-76
2021/01/24 02:37:24;;;;;;;11.63;5.10;;;;;;;2.12;61.84;97881.88;5001389;28;20049;-76
2021/01/24 02:39:52;;;;;;;12.65;5.82;;;;;;;2.32;61.72;97885.25;5038933;28;20175;-76
2021/01/24 02:42:19;;;;;;;18.83;6.20;;;;;;;2.14;61.83;97882.75;4999373;28;20065;-76
2021/01/24 02:44:46;;;;;;;14.82;6.57;;;;;;;1.84;63.39;97882.81;5014912;28;20057;-76
2021/01/24 02:47:14;;;;;;;12.20;7.28;;;;;;;1.92;62.93;97887.06;5036006;28;20616;-76
2021/01/24 02:49:45;;;;;;;14.25;6.05;;;;;;;1.82;63.49;97881.97;5019093;28;20103;-76
2021/01/24 02:52:13;;;;;;;13.35;6.07;;;;;;;2.03;62.88;97879.34;5022288;28;20090;-75
2021/01/24 02:54:42;;;;;;;11.82;5.68;;;;;;;2.11;62.21;97880.19;5013600;28;20116;-76
2021/01/24 02:57:09;;;;;;;16.65;5.45;;;;;;;2.02;62.95;97877.59;5021774;28;20048;-76
2021/01/24 02:59:36;;;;;;;17.85;5.72;;;;;;;2.07;62.28;97873.31;5014823;28;20116;-76
2021/01/24 03:02:04;;;;;;;13.20;6.20;;;;;;;2.02;62.56;97877.59;5004913;28;20067;-75
2021/01/24 03:04:31;;;;;;;12.60;6.10;;;;;;;2.16;62.02;97881.00;4997591;28;20046;-76
2021/01/24 03:06:57;;;;;;;19.40;6.35;;;;;;;2.33;61.72;97875.81;5008378;28;20064;-76
2021/01/24 03:09:24;;;;;;;13.75;6.88;;;;;;;2.25;61.72;97880.13;4986229;28;20627;-76
2021/01/24 03:11:52;;;;;;;14.63;5.88;;;;;;;2.24;62.38;97878.41;5022273;28;20058;-78
2021/01/24 03:14:25;;;;;;;14.73;6.40;;;;;;;2.27;62.41;97883.53;5016752;28;20045;-78
2021/01/24 03:16:56;;;;;;;10.35;5.95;;;;;;;1.84;63.65;97893.09;5019224;28;20071;-75
2021/01/24 03:19:25;;;;;;;14.75;6.75;;;;;;;1.76;64.00;97898.28;5011761;28;20041;-76
2021/01/24 03:21:53;;;;;;;16.55;7.60;;;;;;;1.83;63.60;97896.53;5015901;28;20124;-75
2021/01/24 03:24:24;;;;;;;23.17;6.88;;;;;;;2.04;63.02;97894.78;5014998;28;20057;-75
2021/01/24 03:26:51;;;;;;;12.13;5.72;;;;;;;2.36;62.13;97892.09;5018792;28;20072;-76
2021/01/24 03:29:19;;;;;;;15.02;6.15;;;;;;;2.46;61.80;97887.75;5017067;28;20053;-75
2021/01/24 03:31:46;;;;;;;18.23;6.10;;;;;;;2.69;60.98;97883.34;5019180;28;20469;-77
2021/01/24 03:34:25;;;;;;;14.55;6.78;;;;;;;2.67;61.16;97873.94;4997298;28;20103;-76
2021/01/24 03:36:54;;;;;;;15.50;6.68;;;;;;;2.65;61.30;97876.50;5022385;28;20045;-76
2021/01/24 03:39:21;;;;;;;17.38;6.78;;;;;;;2.19;62.29;97869.00;5017149;28;20050;-75
2021/01/24 03:41:47;;;;;;;16.63;6.25;;;;;;;2.45;61.93;97868.00;5011987;28;20054;-76
2021/01/24 03:44:15;;;;;;;15.77;6.70;;;;;;;1.95;63.37;97861.34;5013831;28;20045;-76
2021/01/24 03:46:43;;;;;;;14.25;6.05;;;;;;;2.06;63.26;97861.31;5014896;28;20330;-76
2021/01/24 03:49:09;;;;;;;14.95;6.68;;;;;;;2.42;62.08;97858.59;5021404;28;20046;-75
2021/01/24 03:51:43;;;;;;;12.38;5.55;;;;;;;2.20;62.46;97864.69;4996545;28;20057;-76
2021/01/24 03:54:09;;;;;;;14.38;6.03;;;;;;;2.10;62.89;97863.88;5010979;28;20049;-77
2021/01/24 03:56:36;;;;;;;17.13;6.40;;;;;;;2.04;63.17;97873.31;5013083;28;20625;-76
2021/01/24 03:59:02;;;;;;;14.40;7.00;;;;;;;1.69;64.56;97879.41;5005295;28;20140;-76
2021/01/24 04:01:30;;;;;;;15.75;6.70;;;;;;;2.24;63.23;97887.00;5013944;28;20072;-77
2021/01/24 04:03:57;;;;;;;13.27;5.90;;;;;;;2.00;63.66;97889.66;5021731;28;20427;-76
2021/01/24 04:06:24;;;;;;;12.48;5.75;;;;;;;2.25;63.26;97888.72;5012307;28;20118;-76
2021/01/24 04:08:51;;;;;;;14.90;5.60;;;;;;;2.39;62.68;97881.81;5021087;28;20514;-76
2021/01/24 04:11:18;;;;;;;12.00;5.35;;;;;;;2.40;62.74;97877.50;5016215;28;20052;-76
2021/01/24 04:13:45;;;;;;;17.85;5.38;;;;;;;2.27;63.33;97879.25;5020279;28;20050;-76
2021/01/24 04:16:11;;;;;;;12.27;4.78;;;;;;;2.42;62.60;97876.63;5017158;28;20042;-76
2021/01/24 04:18:39;;;;;;;12.30;5.50;;;;;;;2.44;62.85;97862.03;5020466;28;20044;-76
2021/01/24 04:21:06;;;;;;;22.20;6.05;;;;;;;2.26;63.54;97854.34;5014850;28;20046;-75
2021/01/24 04:23:32;;;;;;;14.95;5.78;;;;;;;2.44;62.53;97856.00;5014558;28;20557;-75
2021/01/24 04:25:59;;;;;;;19.38;6.78;;;;;;;2.77;61.39;97860.13;5019399;28;20100;-76
2021/01/24 04:28:25;;;;;;;15.52;6.55;;;;;;;2.55;61.68;97856.78;5010649;28;20777;-76
2021/01/24 04:30:52;;;;;;;18.42;5.85;;;;;;;2.56;62.14;97861.09;5021754;28;20468;-76
2021/01/24 04:33:19;;;;;;;16.17;6.28;;;;;;;2.82;61.45;97856.66;5012180;28;20285;-76
2021/01/24 04:35:46;;;;;;;11.60;5.55;;;;;;;2.71;61.10;97847.25;5003303;28;20111;-77
2021/01/24 04:38:13;;;;;;;14.88;6.47;;;;;;;2.69;61.34;97854.13;5015334;28;20048;-76
2021/01/24 04:40:39;;;;;;;14.05;6.00;;;;;;;2.35;62.28;97850.91;5017625;28;20439;-75
2021/01/24 04:43:06;;;;;;;10.27;5.53;;;;;;;2.66;61.78;97849.00;5011416;28;20483;-76
2021/01/24 04:45:32;;;;;;;10.73;5.75;;;;;;;2.33;62.38;97852.63;4997714;28;20064;-76
2021/01/24 04:47:59;;;;;;;12.95;5.75;;;;;;;2.46;62.59;97849.97;4996271;28;20120;-76
2021/01/24 04:50:26;;;;;;;12.10;5.75;;;;;;;2.61;62.34;97843.88;4999876;28;20077;-75
2021/01/24 04:52:53;;;;;;;11.57;5.65;;;;;;;2.47;62.55;97841.38;5003277;28;20084;-78
2021/01/24 04:55:20;;;;;;;13.73;6.47;;;;;;;2.59;62.17;97840.47;5019807;28;20128;-78
2021/01/24 04:57:47;;;;;;;16.98;8.43;;;;;;;2.65;62.17;97850.72;5013697;28;20436;-76
2021/01/24 05:00:14;;;;;;;17.42;8.57;;;;;;;2.64;61.78;97849.84;5004411;28;20117;-76
2021/01/24 05:02:40;;;;;;;10.98;5.70;;;;;;;2.85;61.65;97848.88;5017482;28;20073;-75
2021/01/24 05:05:09;;;;;;;15.95;7.00;;;;;;;2.59;61.98;97846.44;5023276;28;20224;-75
2021/01/24 05:07:35;;;;;;;17.23;8.30;;;;;;;2.80;62.06;97857.50;5005148;28;20049;-75
2021/01/24 05:10:03;;;;;;;17.25;8.07;;;;;;;3.00;61.19;97843.63;5019319;28;20046;-76
2021/01/24 05:12:30;;;;;;;17.40;7.80;;;;;;;2.96;61.06;97847.09;5024146;28;20416;-76
2021/01/24 05:14:58;;;;;;;12.82;7.07;;;;;;;2.84;61.58;97849.75;5018321;28;20531;-76
2021/01/24 05:17:25;;;;;;;16.00;6.63;;;;;;;3.03;61.36;97851.34;5019261;28;20037;-76
2021/01/24 05:19:53;;;;;;;11.88;5.90;;;;;;;2.93;61.36;97847.09;4999240;28;20505;-76
2021/01/24 05:22:19;;;;;;;11.30;6.22;;;;;;;3.19;61.24;97852.09;5016623;28;20126;-76
2021/01/24 05:24:46;;;;;;;14.35;5.95;;;;;;;3.42;60.11;97849.31;4997001;28;20058;-77
2021/01/24 05:27:13;;;;;;;11.60;5.55;;;;;;;3.39;59.95;97851.94;5018215;28;20042;-75
2021/01/24 05:29:42;;;;;;;13.77;5.05;;;;;;;3.21;60.65;97857.25;5012383;28;20416;-76
2021/01/24 05:32:11;;;;;;;13.38;5.15;;;;;;;2.88;61.59;97850.56;5016642;28;20055;-76
2021/01/24 05:34:43;;;;;;;13.32;6.78;;;;;;;3.10;61.10;97852.16;5016582;28;20053;-76
2021/01/24 05:37:09;;;;;;;16.10;7.37;;;;;;;3.13;60.98;97849.53;5023849;28;20068;-75
2021/01/24 05:39:35;;;;;;;20.27;10.23;;;;;;;2.91;61.42;97856.59;5005983;28;20125;-76
2021/01/24 05:42:02;;;;;;;20.10;9.32;;;;;;;3.08;61.11;97849.56;5001512;28;20053;-75
2021/01/24 05:44:28;;;;;;;21.77;9.80;;;;;;;2.54;62.42;97840.47;4996204;28;20042;-76
2021/01/24 05:47:01;;;;;;;23.20;9.93;;;;;;;2.52;62.80;97836.19;5001547;28;20172;-76
2021/01/24 05:49:29;;;;;;;23.15;10.98;;;;;;;2.32;63.17;97831.13;4997991;28;20054;-76
2021/01/24 05:52:04;;;;;;;18.58;9.57;;;;;;;2.65;62.67;97837.84;5004352;28;20084;-76
2021/01/24 05:54:42;;;;;;;21.58;9.95;;;;;;;3.14;61.47;97834.91;4999699;28;20056;-77
2021/01/24 05:57:11;;;;;;;15.77;9.52;;;;;;;3.14;61.49;97825.47;5014738;28;20175;-76
2021/01/24 05:59:48;;;;;;;22.77;9.07;;;;;;;3.06;62.07;97830.69;5001523;28;20128;-76
2021/01/24 06:02:14;;;;;;;23.67;9.88;;;;;;;2.75;62.79;97826.59;5003361;28;20042;-76
2021/01/24 06:04:42;;;;;;;22.05;10.13;;;;;;;3.08;62.07;97828.94;5000171;28;20042;-76
2021/01/24 06:07:08;;;;;;;21.25;10.40;;;;;;;2.98;62.38;97824.72;4998749;28;20062;-76
2021/01/24 06:09:35;;;;;;;16.67;8.55;;;;;;;3.30;61.11;97829.63;5015556;28;20044;-76
2021/01/24 06:12:03;;;;;;;19.92;10.10;;;;;;;2.81;62.27;97826.56;5018334;28;20054;-76
2021/01/24 06:14:33;;;;;;;15.95;8.98;;;;;;;2.95;62.14;97821.31;5018837;28;20041;-76
2021/01/24 06:17:03;;;;;;;23.00;9.07;;;;;;;3.02;61.87;97823.81;5016989;28;20048;-76
2021/01/24 06:19:40;;;;;;;21.00;10.40;;;;;;;2.92;61.92;97814.47;5015441;28;20077;-76
2021/01/24 06:22:12;;;;;;;23.13;9.80;;;;;;;2.92;61.95;97811.03;5017147;28;20560;-77
2021/01/24 06:24:46;;;;;;;17.95;9.98;;;;;;;2.92;62.02;97809.31;5012598;28;20108;-75
2021/01/24 06:27:19;;;;;;;18.27;9.05;;;;;;;3.10;61.79;97810.88;5014403;28;20088;-75
2021/01/24 06:29:51;;;;;;;23.30;9.75;;;;;;;2.99;62.01;97807.53;5019718;28;20065;-75
2021/01/24 06:32:30;;;;;;;17.88;9.35;;;;;;;3.00;61.74;97811.81;5016929;28;20049;-76
2021/01/24 06:35:31;;;;;;;18.80;8.57;;;;;;;2.95;62.25;97809.28;5018449;28;20476;-76
2021/01/24 06:38:00;;;;;;;15.25;8.55;;;;;;;2.93;62.49;97816.16;4998915;28;20057;-75
2021/01/24 06:40:31;;;;;;;19.60;8.77;;;;;;;3.06;62.31;97816.94;5018466;28;20041;-76
2021/01/24 06:43:00;;;;;;;18.42;8.73;;;;;;;3.12;61.93;97821.19;5015089;28;20060;-75
2021/01/24 06:45:26;;;;;;;18.02;8.13;;;;;;;3.06;62.28;97819.53;4999598;28;20053;-76
2021/01/24 06:47:55;;;;;;;16.15;8.10;;;;;;;3.08;62.03;97810.03;4997409;28;20599;-75
2021/01/24 06:50:40;;;;;;;12.70;7.28;;;;;;;3.04;62.16;97811.78;5004996;28;20069;-75
2021/01/24 06:53:09;;;;;;;15.63;7.65;;;;;;;3.20;61.83;97806.50;5017653;28;20176;-75
2021/01/24 06:55:50;;;;;;;15.60;8.18;;;;;;;3.19;61.84;97802.19;5017056;28;20148;-76
2021/01/24 06:58:27;;;;;;;15.80;7.13;;;;;;;2.99;62.11;97803.22;5018920;28;20140;-75
2021/01/24 07:01:22;;;;;;;16.13;7.85;;;;;;;3.13;62.14;97803.09;5018924;28;20136;-76
2021/01/24 07:04:20;;;;;;;17.48;8.38;;;;;;;3.33;61.30;97800.34;4997256;28;20045;-76
2021/01/24 07:06:51;;;;;;;15.13;8.25;;;;;;;3.25;61.34;97808.19;4984013;28;20120;-76
2021/01/24 07:09:27;;;;;;;17.35;8.75;;;;;;;3.09;61.81;97801.44;4996026;28;20050;-76
2021/01/24 07:12:05;;;;;;;15.52;8.90;;;;;;;3.22;61.59;97803.03;5004406;28;20049;-75
2021/01/24 07:14:34;;;;;;;16.40;8.35;;;;;;;3.22;61.75;97802.16;5007671;28;20149;-76
2021/01/24 07:17:06;;;;;;;18.35;8.32;;;;;;;3.23;61.84;97807.31;5002695;28;20064;-76
2021/01/24 07:19:45;;;;;;;16.77;8.20;;;;;;;3.21;61.90;97803.91;4987389;28;20097;-75
2021/01/24 07:22:13;;;;;;;14.38;8.43;;;;;;;2.96;62.47;97805.84;5001051;28;20050;-75
2021/01/24 07:24:42;;;;;;;19.15;8.50;;;;;;;3.24;61.89;97808.19;4995094;28;20103;-76
2021/01/24 07:27:11;;;;;;;14.82;7.35;;;;;;;3.24;61.86;97811.63;5012993;28;20462;-76
2021/01/24 07:29:38;;;;;;;13.32;7.70;;;;;;;3.24;62.05;97806.47;5014622;28;20087;-76
2021/01/24 07:32:09;;;;;;;17.10;9.25;;;;;;;3.22;62.50;97809.91;5007654;28;20373;-76
2021/01/24 07:34:36;;;;;;;17.65;9.27;;;;;;;3.11;63.02;97799.69;4996801;28;20050;-76
2021/01/24 07:37:05;;;;;;;27.90;12.02;;;;;;;3.35;62.35;97803.78;5001963;28;20049;-76
2021/01/24 07:39:33;;;;;;;32.03;12.93;;;;;;;3.14;62.75;97809.13;4995761;28;20050;-75
2021/01/24 07:42:00;;;;;;;35.10;13.65;;;;;;;3.22;62.65;97808.19;4981914;28;20461;-76
2021/01/24 07:44:27;;;;;;;28.52;12.85;;;;;;;3.01;63.33;97805.81;4993751;28;20058;-76
2021/01/24 07:46:53;;;;;;;35.70;13.00;;;;;;;3.03;62.93;97802.31;5003503;28;20071;-76
2021/01/24 07:49:20;;;;;;;32.70;14.65;;;;;;;3.29;62.44;97809.00;4995177;28;20061;-76
2021/01/24 07:51:47;;;;;;;31.80;14.65;;;;;;;3.28;62.60;97807.28;4997601;28;20050;-77
2021/01/24 07:54:15;;;;;;;33.55;15.25;;;;;;;3.25;62.38;97812.47;4995888;28;20121;-76
2021/01/24 07:56:43;;;;;;;31.17;13.88;;;;;;;3.23;62.72;97807.31;4994621;28;20057;-76
2021/01/24 07:59:09;;;;;;;28.52;14.63;;;;;;;2.59;64.70;97804.38;5001073;28;20302;-76
2021/01/24 08:01:36;;;;;;;42.08;17.15;;;;;;;2.93;63.65;97805.84;5013469;28;20603;-76
2021/01/24 08:04:04;;;;;;;69.43;36.97;;;;;;;2.83;63.42;97808.53;5021970;28;20096;-76
2021/01/24 08:06:32;;;;;;;39.58;18.35;;;;;;;2.74;63.39;97816.28;5014066;28;20172;-76
2021/01/24 08:08:59;;;;;;;34.88;12.05;;;;;;;2.73;63.88;97822.34;5004400;28;20118;-76
2021/01/24 08:11:30;;;;;;;33.58;13.23;;;;;;;2.71;63.64;97811.16;5013334;28;20120;-77
2021/01/24 08:13:56;;;;;;;47.67;19.92;;;;;;;2.47;64.46;97820.75;5020687;28;20124;-76
2021/01/24 08:16:30;;;;;;;47.58;18.42;;;;;;;2.79;63.66;97817.13;5016654;28;20435;-77
2021/01/24 08:18:57;;;;;;;42.65;19.17;;;;;;;2.83;63.46;97811.94;5005944;28;20137;-76
2021/01/24 08:21:25;;;;;;;37.95;18.35;;;;;;;2.97;63.44;97815.25;4995504;28;20079;-77
2021/01/24 08:23:53;;;;;;;43.58;19.50;;;;;;;3.09;63.14;97819.47;4999906;28;20061;-77
2021/01/24 08:26:21;;;;;;;31.20;14.43;;;;;;;3.07;63.50;97827.22;4994130;28;20181;-77
2021/01/24 08:28:48;;;;;;;32.53;14.48;;;;;;;3.33;62.69;97826.16;4991784;28;20046;-77
2021/01/24 08:31:19;;;;;;;33.28;13.95;;;;;;;3.25;63.16;97823.66;4997086;28;20049;-77
2021/01/24 08:33:47;;;;;;;32.65;13.75;;;;;;;3.37;62.98;97825.25;5000852;28;20053;-76
2021/01/24 08:36:15;;;;;;;32.78;13.50;;;;;;;3.47;62.65;97824.31;4995195;28;20050;-75
2021/01/24 08:38:42;;;;;;;30.88;13.77;;;;;;;3.33;62.59;97829.59;4979012;28;20057;-78
2021/01/24 08:41:11;;;;;;;26.80;12.85;;;;;;;3.25;63.23;97827.97;4989006;28;20513;-75
2021/01/24 08:43:38;;;;;;;30.60;13.63;;;;;;;3.48;62.85;97834.63;4981638;28;20049;-76
2021/01/24 08:46:18;;;;;;;37.67;15.38;;;;;;;3.67;62.37;97837.03;4998526;28;20057;-76
2021/01/24 08:48:44;;;;;;;41.40;19.58;;;;;;;3.77;62.05;97836.94;4995655;28;20080;-76
2021/01/24 08:51:11;;;;;;;48.08;19.02;;;;;;;3.79;62.20;97830.00;5012624;28;20116;-76
2021/01/24 08:53:37;;;;;;;38.53;17.65;;;;;;;3.81;62.35;97832.59;4994115;28;20144;-75
2021/01/24 08:56:04;;;;;;;42.80;19.17;;;;;;;3.41;63.62;97832.97;4998279;28;20386;-76
2021/01/24 08:58:31;;;;;;;58.03;21.60;;;;;;;3.29;63.77;97830.50;4993353;28;20057;-76
2021/01/24 09:01:10;;;;;;;41.00;17.88;;;;;;;3.60;62.97;97830.22;5000847;28;20412;-76
2021/01/24 09:03:37;;;;;;;67.22;27.35;;;;;;;3.81;62.46;97824.84;5002233;28;20057;-75
2021/01/24 09:06:16;;;;;;;102.65;44.22;;;;;;;3.96;61.80;97824.66;5012020;28;20042;-76
2021/01/24 09:08:47;;;;;;;98.78;32.53;;;;;;;4.19;60.99;97826.97;5011499;28;20399;-75
2021/01/24 09:11:14;;;;;;;46.40;22.83;;;;;;;4.17;60.85;97823.56;4986968;28;20063;-76
2021/01/24 09:13:40;;;;;;;35.33;18.70;;;;;;;4.18;60.76;97833.00;5012939;28;20527;-76
2021/01/24 09:16:07;;;;;;;29.75;15.25;;;;;;;4.21;60.57;97836.44;5013577;28;20096;-77
2021/01/24 09:18:34;;;;;;;32.45;13.38;;;;;;;4.38;60.14;97838.81;5006346;28;20125;-76
2021/01/24 09:21:02;;;;;;;40.78;17.60;;;;;;;4.11;60.95;97832.25;4996253;28;20058;-76
2021/01/24 09:23:30;;;;;;;40.83;19.52;;;;;;;4.10;60.94;97840.00;5007269;28;20180;-76
2021/01/24 09:25:57;;;;;;;54.92;22.73;;;;;;;4.11;61.49;97836.56;4999997;28;20064;-77
2021/01/24 09:28:24;;;;;;;69.97;25.77;;;;;;;3.66;62.03;97838.75;4992178;28;20057;-77
2021/01/24 09:30:53;;;;;;;48.00;22.67;;;;;;;3.90;61.70;97835.06;5012361;28;20039;-77
2021/01/24 09:33:20;;;;;;;46.58;21.38;;;;;;;4.32;60.39;97841.47;4990843;28;20164;-76
2021/01/24 09:35:46;;;;;;;41.88;19.95;;;;;;;4.39;60.21;97832.75;5001102;28;20058;-77
2021/01/24 09:38:13;;;;;;;39.25;18.85;;;;;;;4.24;60.65;97831.22;4997971;28;20048;-77
2021/01/24 09:40:39;;;;;;;42.35;19.15;;;;;;;4.38;60.28;97838.81;5016375;28;20472;-76
2021/01/24 09:43:06;;;;;;;39.63;19.45;;;;;;;4.28;60.28;97838.06;5016544;28;20067;-77
2021/01/24 09:45:34;;;;;;;43.92;19.33;;;;;;;4.27;60.40;97832.91;5013867;28;20045;-76
2021/01/24 09:48:00;;;;;;;37.47;18.38;;;;;;;4.47;60.17;97838.69;4991096;28;20076;-76
2021/01/24 09:50:26;;;;;;;40.15;20.40;;;;;;;4.57;59.99;97839.41;5006414;28;20366;-77
2021/01/24 09:52:53;;;;;;;44.03;21.83;;;;;;;4.63;59.68;97840.19;4989706;28;20115;-76
2021/01/24 09:55:19;;;;;;;36.90;18.13;;;;;;;4.74;59.45;97838.34;5017103;28;20171;-76
2021/01/24 09:57:45;;;;;;;39.15;18.45;;;;;;;4.82;59.14;97838.22;5020959;28;20057;-76
2021/01/24 10:00:13;;;;;;;42.08;19.10;;;;;;;4.87;59.06;97835.56;5013627;28;20045;-77
2021/01/24 10:02:39;;;;;;;39.22;18.58;;;;;;;4.52;59.85;97842.06;5020295;28;20053;-76
2021/01/24 10:05:06;;;;;;;64.57;27.92;;;;;;;4.92;59.09;97839.78;5018062;28;20160;-76
2021/01/24 10:07:33;;;;;;;41.70;20.52;;;;;;;5.07;58.75;97839.56;5011299;28;20050;-76
2021/01/24 10:10:00;;;;;;;42.15;20.08;;;;;;;5.16;58.60;97833.38;5018901;28;20116;-76
2021/01/24 10:12:26;;;;;;;42.72;19.35;;;;;;;5.20;58.47;97837.63;5024326;28;20376;-76
2021/01/24 10:14:53;;;;;;;33.72;17.15;;;;;;;5.26;58.34;97835.81;5014672;28;20068;-76
2021/01/24 10:17:19;;;;;;;35.42;18.05;;;;;;;5.42;57.81;97827.78;5002445;28;20045;-76
2021/01/24 10:19:46;;;;;;;30.95;17.02;;;;;;;5.56;57.59;97826.66;5009941;28;20550;-77
2021/01/24 10:22:12;;;;;;;30.67;16.65;;;;;;;5.66;57.22;97828.19;5003206;28;20057;-74
2021/01/24 10:24:39;;;;;;;34.40;16.30;;;;;;;5.76;57.10;97830.63;5003964;28;20159;-74
2021/01/24 10:27:05;;;;;;;31.42;16.52;;;;;;;5.80;57.05;97832.31;5019713;28;20041;-74
2021/01/24 10:29:49;;;;;;;35.08;16.73;;;;;;;5.87;56.91;97836.50;5004524;28;20049;-77
2021/01/24 10:32:15;;;;;;;29.52;15.73;;;;;;;5.91;56.51;97838.16;5017226;28;20061;-76
2021/01/24 10:34:59;;;;;;;34.03;17.33;;;;;;;5.37;57.93;97840.78;5004824;28;20127;-76
2021/01/24 10:37:26;;;;;;;34.08;16.55;;;;;;;5.65;57.23;97842.06;5017254;28;20041;-76
2021/01/24 10:39:52;;;;;;;36.38;17.35;;;;;;;5.86;56.70;97838.22;5022889;28;20048;-76
2021/01/24 10:42:19;;;;;;;36.33;15.88;;;;;;;5.91;56.52;97833.81;5010985;28;20405;-77
2021/01/24 10:44:45;;;;;;;39.53;16.77;;;;;;;5.83;56.77;97842.59;5014681;28;20054;-76
2021/01/24 10:47:12;;;;;;;37.00;16.05;;;;;;;5.56;57.43;97844.78;5005313;28;20132;-76
2021/01/24 10:49:38;;;;;;;34.70;15.93;;;;;;;5.47;58.24;97847.53;5003019;28;20534;-76
2021/01/24 10:52:07;;;;;;;38.00;17.70;;;;;;;5.74;57.58;97838.44;5016499;28;20053;-75
2021/01/24 10:54:34;;;;;;;33.70;18.02;;;;;;;5.72;57.80;97840.19;5004166;28;20477;-75
2021/01/24 10:57:01;;;;;;;33.33;16.63;;;;;;;5.79;57.87;97846.13;4999304;28;20052;-75
2021/01/24 10:59:27;;;;;;;32.88;17.38;;;;;;;5.86;57.58;97843.38;5015577;28;20396;-75
2021/01/24 11:01:54;;;;;;;34.88;17.05;;;;;;;5.96;57.34;97841.50;5020718;28;20485;-75
2021/01/24 11:04:24;;;;;;;33.88;16.58;;;;;;;5.98;57.43;97845.81;5016995;28;20369;-76
2021/01/24 11:06:50;;;;;;;39.50;17.10;;;;;;;6.04;57.17;97852.63;5018093;28;20090;-75
2021/01/24 11:09:17;;;;;;;31.83;16.58;;;;;;;6.04;57.32;97843.06;5005177;28;20049;-75
2021/01/24 11:11:43;;;;;;;31.13;15.65;;;;;;;6.11;57.07;97846.41;5019697;28;20064;-76
2021/01/24 11:14:10;;;;;;;28.95;14.88;;;;;;;5.85;57.40;97846.03;5017260;28;20435;-75
2021/01/24 11:16:36;;;;;;;38.55;17.00;;;;;;;5.98;57.33;97843.22;5017948;28;20829;-75
2021/01/24 11:19:03;;;;;;;28.70;14.32;;;;;;;6.12;56.71;97851.56;4998881;28;20053;-75
2021/01/24 11:21:29;;;;;;;30.17;15.30;;;;;;;6.19;56.69;97844.50;5008795;28;20423;-74
2021/01/24 11:23:56;;;;;;;36.03;15.13;;;;;;;6.17;56.54;97853.22;5025476;28;20093;-74
2021/01/24 11:26:23;;;;;;;25.33;14.35;;;;;;;6.27;56.46;97850.44;4997927;28;20053;-74
2021/01/24 11:28:49;;;;;;;30.20;15.10;;;;;;;6.38;56.27;97855.41;4997149;28;20057;-74
2021/01/24 11:31:16;;;;;;;33.05;15.00;;;;;;;6.45;55.86;97852.66;4993286;28;20049;-77
2021/01/24 11:33:45;;;;;;;31.15;13.95;;;;;;;6.32;56.40;97855.53;4996087;28;20081;-75
2021/01/24 11:36:13;;;;;;;27.30;13.43;;;;;;;6.40;56.30;97851.03;5022232;28;20057;-76
2021/01/24 11:38:41;;;;;;;28.60;13.45;;;;;;;6.50;56.57;97852.56;4998992;28;20064;-74